METAR Data
IDs: Format: Raw Decoded Include TAF

Data at: 1959 UTC 02 Oct 2022

METAR for:EBFS (Florennes(AB), WN, BE)
Text:EBFS 021925Z AUTO 28005KT 3300 BR BKN002/// BKN004/// 12/11 Q1024 AMB
Temperature: 12.0°C ( 54°F)
Dewpoint: 11.0°C ( 52°F) [RH = 94%]
Pressure (altimeter):30.24 inches Hg (1024.0 mb)
Winds:from the W (280 degrees) at 6 MPH (5 knots; 2.6 m/s)
Visibility: 2.05 sm ( 3.30 km)
Ceiling:200 feet AGL
Clouds: broken clouds at 200 feet AGL, broken clouds at 400 feet AGL
Weather:BR (mist)

TAF for:EBFS (Florennes(AB), WN, BE)
Text:No data found